Time;durP1;ratioP1;P1;durP2;ratioP2;P2;SDS_P1;SDS_P2;PMS_P1;PMS_P2;Temp;Humidity;BMP_temperature;BMP_pressure;BME280_temperature;BME280_humidity;BME280_pressure;Samples;Min_cycle;Max_cycle;Signal;HPM_P1;HPM_P2
2022/01/09 00:01:43;;;;;;;1.47;0.90;;;4.50;99.90;;;;;;5067781;28;20260;-42
2022/01/09 00:04:09;;;;;;;8.43;1.00;;;4.50;99.90;;;;;;5062236;28;20570;-43
2022/01/09 00:06:34;;;;;;;0.67;0.67;;;4.60;99.90;;;;;;5064644;28;20193;-41
2022/01/09 00:09:00;;;;;;;0.70;0.70;;;4.50;99.90;;;;;;5063947;28;20342;-41
2022/01/09 00:11:26;;;;;;;2.47;0.90;;;4.50;99.90;;;;;;5068555;28;20200;-42
2022/01/09 00:13:56;;;;;;;0.80;0.80;;;4.60;99.90;;;;;;5069454;28;20200;-41
2022/01/09 00:16:23;;;;;;;0.83;0.80;;;4.60;99.90;;;;;;5069472;28;20436;-42
2022/01/09 00:18:50;;;;;;;0.80;0.70;;;4.40;99.90;;;;;;5089486;28;20414;-43
2022/01/09 00:21:17;;;;;;;1.00;0.90;;;4.40;99.90;;;;;;5086486;28;20488;-42
2022/01/09 00:23:45;;;;;;;0.90;0.90;;;4.50;99.90;;;;;;5065316;28;20434;-42
2022/01/09 00:26:11;;;;;;;2.70;0.90;;;4.50;99.90;;;;;;5068933;28;20434;-41
2022/01/09 00:28:37;;;;;;;1.67;1.00;;;4.50;99.90;;;;;;5069092;28;20419;-44
2022/01/09 00:31:03;;;;;;;0.80;0.80;;;4.60;99.90;;;;;;5068220;28;20459;-42
2022/01/09 00:33:28;;;;;;;1.07;0.90;;;4.50;99.90;;;;;;5069139;28;20586;-41
2022/01/09 00:35:54;;;;;;;0.80;0.80;;;4.50;99.90;;;;;;5069049;28;20185;-41
2022/01/09 00:38:20;;;;;;;1.13;0.80;;;4.50;99.90;;;;;;5053532;28;20189;-41
2022/01/09 00:40:46;;;;;;;0.70;0.70;;;4.50;99.90;;;;;;5068307;28;20231;-41
2022/01/09 00:43:12;;;;;;;1.03;0.93;;;4.60;99.90;;;;;;5067509;28;20227;-41
2022/01/09 00:45:39;;;;;;;0.80;0.77;;;4.50;99.90;;;;;;5068959;28;20420;-42
2022/01/09 00:48:06;;;;;;;0.87;0.87;;;4.70;99.90;;;;;;5069074;28;20461;-42
2022/01/09 00:50:33;;;;;;;0.90;0.80;;;4.50;99.90;;;;;;5068154;28;20918;-42
2022/01/09 00:52:59;;;;;;;1.13;1.03;;;4.50;99.90;;;;;;5059915;28;20473;-41
2022/01/09 00:55:25;;;;;;;1.10;1.00;;;4.60;99.90;;;;;;5066218;28;20411;-42
2022/01/09 00:57:51;;;;;;;0.97;0.87;;;4.70;99.90;;;;;;5068569;28;20438;-43
2022/01/09 01:00:16;;;;;;;1.00;0.80;;;4.90;99.90;;;;;;5071334;28;20934;-42
2022/01/09 01:02:42;;;;;;;0.87;0.87;;;4.80;99.90;;;;;;5073146;28;20184;-41
2022/01/09 01:05:09;;;;;;;0.67;0.67;;;4.60;99.90;;;;;;5072751;28;20207;-42
2022/01/09 01:07:35;;;;;;;0.70;0.70;;;4.80;99.90;;;;;;5065896;28;20760;-42
2022/01/09 01:10:01;;;;;;;1.43;0.87;;;4.80;99.90;;;;;;5066825;28;20772;-41
2022/01/09 01:12:29;;;;;;;1.13;0.70;;;4.90;99.90;;;;;;5072378;28;20463;-42
2022/01/09 01:14:54;;;;;;;0.80;0.63;;;4.80;99.90;;;;;;5072619;28;20739;-43
2022/01/09 01:17:21;;;;;;;1.10;1.00;;;4.80;99.90;;;;;;5071107;28;20434;-45
2022/01/09 01:19:48;;;;;;;0.93;0.93;;;5.00;99.90;;;;;;5071937;28;20204;-43
2022/01/09 01:22:15;;;;;;;0.70;0.53;;;4.80;99.90;;;;;;5066554;28;20424;-41
2022/01/09 01:24:42;;;;;;;0.90;0.70;;;4.70;99.90;;;;;;5071050;28;20949;-41
2022/01/09 01:27:08;;;;;;;1.30;0.90;;;4.90;99.90;;;;;;5072064;28;20827;-43
2022/01/09 01:29:35;;;;;;;1.57;1.00;;;4.80;99.90;;;;;;5071893;28;20427;-42
2022/01/09 01:32:01;;;;;;;0.67;0.67;;;4.90;99.90;;;;;;5072036;28;20213;-43
2022/01/09 01:34:26;;;;;;;0.73;0.70;;;4.80;99.90;;;;;;5072277;28;20981;-42
2022/01/09 01:36:52;;;;;;;1.17;0.67;;;4.90;99.90;;;;;;5070430;28;20749;-44
2022/01/09 01:39:18;;;;;;;1.00;0.70;;;5.10;99.90;;;;;;5066920;28;20281;-43
2022/01/09 01:41:44;;;;;;;0.73;0.73;;;4.90;99.90;;;;;;5071200;28;20195;-42
2022/01/09 01:44:11;;;;;;;0.73;0.73;;;4.90;99.90;;;;;;5086378;28;20184;-42
2022/01/09 01:46:38;;;;;;;0.70;0.70;;;4.90;99.90;;;;;;5090435;28;20418;-44
2022/01/09 01:49:05;;;;;;;0.70;0.70;;;5.00;99.90;;;;;;5092244;28;20413;-42
2022/01/09 01:51:33;;;;;;;1.00;0.80;;;5.30;99.90;;;;;;5091410;28;20952;-44
2022/01/09 01:53:59;;;;;;;0.90;0.60;;;5.30;99.90;;;;;;5064080;28;20469;-43
2022/01/09 01:56:25;;;;;;;0.57;0.50;;;5.10;99.90;;;;;;5071448;28;20980;-42
2022/01/09 01:58:51;;;;;;;0.50;0.50;;;5.10;99.90;;;;;;5071819;28;20423;-42
2022/01/09 02:01:17;;;;;;;0.70;0.50;;;5.20;99.90;;;;;;5071307;28;20516;-44
2022/01/09 02:03:43;;;;;;;1.10;0.87;;;5.10;99.90;;;;;;5071765;28;20527;-44
2022/01/09 02:06:12;;;;;;;1.47;0.70;;;5.00;99.90;;;;;;5071776;28;20909;-42
2022/01/09 02:08:37;;;;;;;1.13;0.70;;;5.10;99.90;;;;;;5062205;28;20764;-42
2022/01/09 02:11:03;;;;;;;0.70;0.70;;;5.40;99.90;;;;;;5070633;28;20524;-45
2022/01/09 02:13:29;;;;;;;0.60;0.60;;;5.40;99.90;;;;;;5071376;28;20181;-41
2022/01/09 02:16:00;;;;;;;0.70;0.70;;;5.10;99.90;;;;;;5077942;28;20979;-42
2022/01/09 02:18:26;;;;;;;1.03;0.57;;;5.20;99.90;;;;;;5086813;28;20825;-42
2022/01/09 02:20:52;;;;;;;1.23;0.60;;;5.20;99.90;;;;;;5089697;28;20525;-42
2022/01/09 02:23:19;;;;;;;0.60;0.60;;;5.20;99.90;;;;;;5074775;28;20197;-42
2022/01/09 02:25:46;;;;;;;0.70;0.67;;;5.60;99.90;;;;;;5071533;28;20434;-42
2022/01/09 02:28:13;;;;;;;1.23;0.90;;;5.40;99.90;;;;;;5071242;28;20514;-42
2022/01/09 02:30:41;;;;;;;0.80;0.77;;;5.70;99.90;;;;;;5070784;28;20419;-44
2022/01/09 02:33:14;;;;;;;0.90;0.80;;;5.70;99.90;;;;;;5069939;28;20426;-43
2022/01/09 02:35:39;;;;;;;0.93;0.83;;;5.70;99.90;;;;;;5070996;28;20415;-44
2022/01/09 02:38:06;;;;;;;1.00;0.73;;;5.60;99.90;;;;;;5064288;28;20432;-43
2022/01/09 02:40:33;;;;;;;0.60;0.60;;;5.60;99.90;;;;;;5062771;28;20181;-43
2022/01/09 02:42:59;;;;;;;0.93;0.70;;;5.50;99.90;;;;;;5068851;28;20502;-44
2022/01/09 02:45:26;;;;;;;1.07;0.73;;;5.50;99.90;;;;;;5070936;28;20499;-43
2022/01/09 02:47:55;;;;;;;0.80;0.67;;;5.70;99.90;;;;;;5071020;28;20431;-46
2022/01/09 02:50:32;;;;;;;1.17;1.07;;;5.50;99.90;;;;;;5070091;28;20442;-43
2022/01/09 02:53:00;;;;;;;2.00;0.87;;;5.60;99.90;;;;;;5065625;28;21033;-44
2022/01/09 02:55:28;;;;;;;1.93;1.30;;;5.60;99.90;;;;;;5067407;28;20431;-44
2022/01/09 02:57:56;;;;;;;0.70;0.70;;;5.80;99.90;;;;;;5070689;28;20435;-43
2022/01/09 03:00:30;;;;;;;0.87;0.87;;;5.60;99.90;;;;;;5069986;28;20416;-43
2022/01/09 03:02:56;;;;;;;0.97;0.97;;;5.60;99.90;;;;;;5070604;28;20430;-43
2022/01/09 03:05:23;;;;;;;1.10;1.00;;;5.70;99.90;;;;;;5070661;28;20415;-43
2022/01/09 03:07:49;;;;;;;1.00;1.00;;;5.80;99.90;;;;;;5067954;28;20832;-44
2022/01/09 03:10:17;;;;;;;1.50;1.40;;;5.70;99.90;;;;;;5060838;28;20486;-43
2022/01/09 03:12:43;;;;;;;1.63;1.40;;;5.70;99.90;;;;;;5070143;28;20473;-45
2022/01/09 03:15:10;;;;;;;1.40;1.30;;;5.70;99.90;;;;;;5073888;28;20422;-42
2022/01/09 03:17:36;;;;;;;1.90;1.53;;;5.80;99.90;;;;;;5087916;28;20425;-43
2022/01/09 03:20:04;;;;;;;2.50;1.70;;;5.90;99.90;;;;;;5090098;28;20415;-42
2022/01/09 03:22:30;;;;;;;1.53;1.43;;;6.00;99.90;;;;;;5089678;28;20454;-44
2022/01/09 03:24:56;;;;;;;1.93;1.77;;;5.80;99.90;;;;;;5060113;28;20459;-43
2022/01/09 03:27:21;;;;;;;2.60;2.13;;;6.10;99.90;;;;;;5069908;28;20621;-46
2022/01/09 03:29:47;;;;;;;2.73;2.20;;;6.10;99.90;;;;;;5069529;28;20212;-46
2022/01/09 03:32:13;;;;;;;2.57;2.37;;;6.10;99.90;;;;;;5069486;28;20217;-45
2022/01/09 03:34:39;;;;;;;2.00;1.80;;;6.10;99.90;;;;;;5070004;28;20566;-43
2022/01/09 03:37:05;;;;;;;2.50;2.30;;;6.10;99.90;;;;;;5069940;28;20423;-44
2022/01/09 03:39:31;;;;;;;3.40;3.10;;;5.90;99.90;;;;;;5061774;28;20731;-42
2022/01/09 03:41:58;;;;;;;3.97;2.13;;;6.00;99.90;;;;;;5069269;28;20424;-42
2022/01/09 03:44:25;;;;;;;3.20;2.10;;;6.00;99.90;;;;;;5065776;28;20419;-44
2022/01/09 03:46:52;;;;;;;2.40;2.20;;;5.90;99.90;;;;;;5069843;28;20542;-42
2022/01/09 03:49:17;;;;;;;2.80;1.50;;;6.10;99.90;;;;;;5069580;28;20423;-42
2022/01/09 03:51:45;;;;;;;1.30;1.20;;;6.00;99.90;;;;;;5084588;28;20482;-42
2022/01/09 03:54:11;;;;;;;1.40;1.30;;;6.00;99.90;;;;;;5058779;28;20186;-42
2022/01/09 03:56:36;;;;;;;1.80;1.33;;;6.10;99.90;;;;;;5068534;28;20431;-43
2022/01/09 03:59:02;;;;;;;2.57;1.20;;;5.90;99.90;;;;;;5068113;28;20427;-44
2022/01/09 04:01:28;;;;;;;1.53;1.33;;;5.80;99.90;;;;;;5068789;28;20627;-44
2022/01/09 04:03:53;;;;;;;1.03;0.80;;;5.90;99.90;;;;;;5069367;28;20238;-44
2022/01/09 04:06:19;;;;;;;1.90;0.90;;;6.00;99.90;;;;;;5069610;28;20196;-43
2022/01/09 04:08:45;;;;;;;2.07;0.90;;;5.90;99.90;;;;;;5062059;28;20190;-42
2022/01/09 04:11:14;;;;;;;2.23;0.87;;;5.90;99.90;;;;;;5062960;28;20197;-47
2022/01/09 04:13:39;;;;;;;3.77;1.10;;;5.90;99.90;;;;;;5069212;28;20424;-44
2022/01/09 04:16:05;;;;;;;3.60;1.13;;;6.00;99.90;;;;;;5079944;28;20504;-43
2022/01/09 04:18:31;;;;;;;2.87;1.20;;;5.80;99.90;;;;;;5089124;28;20188;-42
2022/01/09 04:20:58;;;;;;;2.43;1.03;;;6.00;99.90;;;;;;5088755;28;20177;-43
2022/01/09 04:23:25;;;;;;;1.43;1.00;;;5.90;99.90;;;;;;5083365;28;20451;-46
2022/01/09 04:25:51;;;;;;;2.77;1.30;;;6.00;99.90;;;;;;5062702;28;20422;-43
2022/01/09 04:28:18;;;;;;;2.73;1.33;;;5.90;99.90;;;;;;5068875;28;20420;-43
2022/01/09 04:30:44;;;;;;;2.20;1.73;;;6.10;99.90;;;;;;5068287;28;20773;-42
2022/01/09 04:33:10;;;;;;;3.47;1.43;;;6.00;99.90;;;;;;5069296;28;20426;-44
2022/01/09 04:35:37;;;;;;;2.10;1.27;;;5.90;99.90;;;;;;5069257;28;20419;-45
2022/01/09 04:38:03;;;;;;;5.50;1.70;;;6.10;99.90;;;;;;5069005;28;20452;-45
2022/01/09 04:40:29;;;;;;;3.47;1.60;;;6.00;99.90;;;;;;5059640;28;20790;-45
2022/01/09 04:42:58;;;;;;;1.67;1.07;;;6.00;99.90;;;;;;5067861;28;20419;-42
2022/01/09 04:45:26;;;;;;;3.97;1.30;;;6.10;99.90;;;;;;5069096;28;20189;-42
2022/01/09 04:47:53;;;;;;;3.30;1.50;;;6.20;99.90;;;;;;5075352;28;20425;-42
2022/01/09 04:50:25;;;;;;;6.37;1.40;;;6.10;99.90;;;;;;5088441;28;20505;-42
2022/01/09 04:53:07;;;;;;;4.43;1.20;;;6.20;99.90;;;;;;5088985;28;20486;-42
2022/01/09 04:55:39;;;;;;;5.70;2.40;;;6.00;99.90;;;;;;5054088;28;20957;-43
2022/01/09 04:58:05;;;;;;;6.67;2.07;;;6.20;99.90;;;;;;5068622;28;20930;-46
2022/01/09 05:00:31;;;;;;;7.50;2.43;;;6.10;99.90;;;;;;5068345;28;20439;-44
2022/01/09 05:02:56;;;;;;;14.77;2.80;;;6.10;99.90;;;;;;5074333;28;20429;-43
2022/01/09 05:05:23;;;;;;;9.00;3.60;;;6.20;99.90;;;;;;5065378;28;20184;-42
2022/01/09 05:07:48;;;;;;;11.17;3.77;;;6.10;99.90;;;;;;5068616;28;20292;-42
2022/01/09 05:10:14;;;;;;;13.93;4.50;;;6.40;99.90;;;;;;5062240;28;20868;-42
2022/01/09 05:12:41;;;;;;;13.20;6.43;;;6.30;99.90;;;;;;5068474;28;20219;-43
2022/01/09 05:15:08;;;;;;;12.97;4.50;;;6.40;99.90;;;;;;5068737;28;20836;-44
2022/01/09 05:17:34;;;;;;;14.87;4.50;;;6.50;99.90;;;;;;5067836;28;20496;-43
2022/01/09 05:20:00;;;;;;;12.50;4.60;;;6.50;99.90;;;;;;5067975;28;20477;-44
2022/01/09 05:22:27;;;;;;;19.47;6.13;;;6.30;99.90;;;;;;5068587;28;20427;-42
2022/01/09 05:24:54;;;;;;;18.00;5.67;;;6.30;99.90;;;;;;5061148;28;20687;-45
2022/01/09 05:27:21;;;;;;;12.70;4.30;;;6.50;99.90;;;;;;5068555;28;20441;-42
2022/01/09 05:29:47;;;;;;;15.90;5.40;;;6.20;99.90;;;;;;5067836;28;20459;-45
2022/01/09 05:32:12;;;;;;;19.40;6.23;;;6.30;99.90;;;;;;5068432;28;20473;-45
2022/01/09 05:34:38;;;;;;;11.80;4.07;;;6.20;99.90;;;;;;5068532;28;20420;-41
2022/01/09 05:37:04;;;;;;;10.47;4.70;;;6.20;99.90;;;;;;5068433;28;20181;-46
2022/01/09 05:39:31;;;;;;;18.70;4.87;;;6.40;99.90;;;;;;5062159;28;20221;-43
2022/01/09 05:41:58;;;;;;;8.30;3.97;;;6.50;99.90;;;;;;5059309;28;20488;-43
2022/01/09 05:44:24;;;;;;;19.13;4.70;;;6.60;99.90;;;;;;5067408;28;21234;-43
2022/01/09 05:46:49;;;;;;;11.60;3.33;;;6.40;99.90;;;;;;5072133;28;20959;-43
2022/01/09 05:49:15;;;;;;;17.07;4.90;;;6.60;99.90;;;;;;5071905;28;20419;-47
2022/01/09 05:51:41;;;;;;;13.57;5.13;;;6.30;99.90;;;;;;5071028;28;20216;-42
2022/01/09 05:54:06;;;;;;;19.23;6.90;;;6.20;99.90;;;;;;5068278;28;20197;-44
2022/01/09 05:56:32;;;;;;;12.23;6.07;;;6.50;99.90;;;;;;5066400;28;20796;-45
2022/01/09 05:58:58;;;;;;;20.27;8.07;;;6.60;99.90;;;;;;5071899;28;20204;-43
2022/01/09 06:01:24;;;;;;;17.07;6.37;;;6.40;99.90;;;;;;5071323;28;20781;-42
2022/01/09 06:03:49;;;;;;;18.60;6.10;;;6.60;99.90;;;;;;5071738;28;20854;-43
2022/01/09 06:06:15;;;;;;;16.63;5.40;;;6.40;99.90;;;;;;5071442;28;20243;-43
2022/01/09 06:08:41;;;;;;;21.63;6.27;;;6.60;99.90;;;;;;5070704;28;20234;-43
2022/01/09 06:11:06;;;;;;;19.00;5.83;;;6.30;99.90;;;;;;5061766;28;20217;-43
2022/01/09 06:13:32;;;;;;;13.63;5.83;;;6.60;99.90;;;;;;5071581;28;20219;-45
2022/01/09 06:15:58;;;;;;;14.57;4.73;;;6.60;99.90;;;;;;5071468;28;20636;-42
2022/01/09 06:18:23;;;;;;;22.43;5.37;;;6.60;99.90;;;;;;5083192;28;20195;-42
2022/01/09 06:20:50;;;;;;;12.00;4.13;;;6.40;99.90;;;;;;5090809;28;20245;-43
2022/01/09 06:23:19;;;;;;;15.03;5.07;;;6.20;99.90;;;;;;5091867;28;20491;-44
2022/01/09 06:25:49;;;;;;;11.73;5.13;;;6.60;99.90;;;;;;5071371;28;20435;-43
2022/01/09 06:28:15;;;;;;;13.17;4.90;;;6.50;99.90;;;;;;5071044;28;20423;-42
2022/01/09 06:30:41;;;;;;;16.87;4.80;;;6.40;99.90;;;;;;5070889;28;20786;-45
2022/01/09 06:33:07;;;;;;;20.37;5.23;;;6.60;99.90;;;;;;5069881;28;20200;-43
2022/01/09 06:35:33;;;;;;;14.53;5.33;;;6.40;99.90;;;;;;5071237;28;20437;-43
2022/01/09 06:37:59;;;;;;;15.13;5.03;;;6.40;99.90;;;;;;5071173;28;20280;-44
2022/01/09 06:40:25;;;;;;;16.73;5.40;;;6.40;99.90;;;;;;5060683;28;20204;-45
2022/01/09 06:42:50;;;;;;;12.83;4.97;;;6.30;99.90;;;;;;5070222;28;20593;-42
2022/01/09 06:45:16;;;;;;;8.90;4.60;;;6.30;99.90;;;;;;5071008;28;20207;-43
2022/01/09 06:47:42;;;;;;;12.13;4.93;;;6.30;99.90;;;;;;5070805;28;20193;-43
2022/01/09 06:50:10;;;;;;;8.13;3.73;;;6.30;99.90;;;;;;5070114;28;20280;-43
2022/01/09 06:52:37;;;;;;;10.93;4.43;;;6.40;99.90;;;;;;5076209;28;20245;-42
2022/01/09 06:55:03;;;;;;;8.90;3.87;;;6.50;99.90;;;;;;5074925;28;20779;-42
2022/01/09 06:57:29;;;;;;;10.83;4.40;;;6.30;99.90;;;;;;5067647;28;20439;-43
2022/01/09 06:59:54;;;;;;;8.17;4.23;;;6.20;99.90;;;;;;5070068;28;20433;-45
2022/01/09 07:02:20;;;;;;;13.70;4.60;;;6.50;99.90;;;;;;5070531;28;20197;-44
2022/01/09 07:04:46;;;;;;;14.60;4.50;;;6.30;99.90;;;;;;5070397;28;20258;-45
2022/01/09 07:07:12;;;;;;;15.57;4.83;;;6.30;99.90;;;;;;5070560;28;20514;-43
2022/01/09 07:09:38;;;;;;;5.53;3.30;;;6.50;99.90;;;;;;5066707;28;20194;-42
2022/01/09 07:12:04;;;;;;;6.10;3.47;;;6.40;99.90;;;;;;5057067;28;20229;-44
2022/01/09 07:14:30;;;;;;;10.77;3.57;;;6.20;99.90;;;;;;5070162;28;20523;-43
2022/01/09 07:16:56;;;;;;;7.13;3.27;;;6.30;99.90;;;;;;5079506;28;20523;-43
2022/01/09 07:19:22;;;;;;;6.90;3.80;;;6.30;99.90;;;;;;5063127;28;20185;-43
2022/01/09 07:21:47;;;;;;;10.60;3.53;;;6.50;99.90;;;;;;5068283;28;20211;-43
2022/01/09 07:24:13;;;;;;;12.73;3.53;;;6.50;99.90;;;;;;5070485;28;20220;-46
2022/01/09 07:26:39;;;;;;;9.83;3.87;;;6.30;99.90;;;;;;5063076;28;20189;-43
2022/01/09 07:29:04;;;;;;;6.70;2.53;;;6.20;99.90;;;;;;5070040;28;20636;-42
2022/01/09 07:31:30;;;;;;;13.67;3.27;;;6.30;99.90;;;;;;5069232;28;20213;-47
2022/01/09 07:33:56;;;;;;;13.97;4.00;;;6.10;99.90;;;;;;5070030;28;20597;-44
2022/01/09 07:36:21;;;;;;;6.80;2.87;;;6.20;99.90;;;;;;5069924;28;20197;-46
2022/01/09 07:38:47;;;;;;;5.83;3.50;;;6.40;99.90;;;;;;5070150;28;20200;-43
2022/01/09 07:41:14;;;;;;;11.03;4.00;;;6.20;99.90;;;;;;5061702;28;20197;-42
2022/01/09 07:43:41;;;;;;;15.23;3.20;;;6.30;99.90;;;;;;5069035;28;20215;-45
2022/01/09 07:46:07;;;;;;;13.53;5.30;;;6.50;99.90;;;;;;5067979;28;20874;-43
2022/01/09 07:48:32;;;;;;;10.07;3.73;;;6.20;99.90;;;;;;5069439;28;20503;-48
2022/01/09 07:50:58;;;;;;;9.50;3.90;;;6.20;99.90;;;;;;5069012;28;20603;-44
2022/01/09 07:53:24;;;;;;;9.23;3.97;;;6.20;99.90;;;;;;5069632;28;20188;-43
2022/01/09 07:55:53;;;;;;;6.70;3.47;;;6.30;99.90;;;;;;5061777;28;20193;-45
2022/01/09 07:58:20;;;;;;;13.30;4.37;;;6.00;99.90;;;;;;5067630;28;20695;-42
2022/01/09 08:00:46;;;;;;;8.30;3.67;;;6.10;99.90;;;;;;5077266;28;20429;-43
2022/01/09 08:03:12;;;;;;;8.50;3.80;;;6.20;99.90;;;;;;5069438;28;20485;-43
2022/01/09 08:05:38;;;;;;;11.20;3.80;;;6.10;99.90;;;;;;5067176;28;20443;-43
2022/01/09 08:08:05;;;;;;;10.83;4.37;;;6.40;99.90;;;;;;5068960;28;20427;-43
2022/01/09 08:10:31;;;;;;;9.77;4.20;;;6.00;99.90;;;;;;5075209;28;20447;-43
2022/01/09 08:12:56;;;;;;;8.93;3.50;;;6.30;99.90;;;;;;5064272;28;20474;-43
2022/01/09 08:15:22;;;;;;;10.90;4.07;;;6.30;99.90;;;;;;5069196;28;20212;-43
2022/01/09 08:17:49;;;;;;;10.87;3.47;;;6.00;99.90;;;;;;5069396;28;20197;-45
2022/01/09 08:20:16;;;;;;;7.90;3.50;;;6.10;99.90;;;;;;5067971;28;20199;-44
2022/01/09 08:22:42;;;;;;;7.67;3.90;;;6.30;99.90;;;;;;5068289;28;20455;-43
2022/01/09 08:25:12;;;;;;;6.43;3.83;;;6.10;99.90;;;;;;5064366;28;20447;-44
2022/01/09 08:27:38;;;;;;;8.40;3.50;;;6.20;99.90;;;;;;5064429;28;20454;-45
2022/01/09 08:30:06;;;;;;;8.00;3.33;;;6.10;99.90;;;;;;5068149;28;20430;-46
2022/01/09 08:32:33;;;;;;;10.63;3.57;;;6.20;99.90;;;;;;5069016;28;20463;-43
2022/01/09 08:34:58;;;;;;;6.33;3.20;;;6.20;99.90;;;;;;5076258;28;20434;-43
2022/01/09 08:37:24;;;;;;;13.13;4.10;;;6.20;99.90;;;;;;5068511;28;20768;-43
2022/01/09 08:39:50;;;;;;;7.97;3.90;;;6.40;99.90;;;;;;5075610;28;20430;-44
2022/01/09 08:42:16;;;;;;;9.40;3.90;;;6.20;99.90;;;;;;5060903;28;20440;-44
2022/01/09 08:44:42;;;;;;;10.90;3.37;;;6.10;99.90;;;;;;5069431;28;20651;-43
2022/01/09 08:47:09;;;;;;;6.43;3.43;;;6.30;99.90;;;;;;5068109;28;20518;-42
2022/01/09 08:49:36;;;;;;;8.40;4.10;;;6.20;99.90;;;;;;5063750;28;20222;-43
2022/01/09 08:52:02;;;;;;;5.60;3.60;;;6.00;99.90;;;;;;5067849;28;20478;-42
2022/01/09 08:54:29;;;;;;;13.83;4.27;;;6.30;99.90;;;;;;5068367;28;20431;-44
2022/01/09 08:56:55;;;;;;;17.37;4.70;;;6.20;99.90;;;;;;5058519;28;20443;-43
2022/01/09 08:59:21;;;;;;;8.60;4.83;;;6.20;99.90;;;;;;5068090;28;20782;-43
2022/01/09 09:01:47;;;;;;;11.10;4.33;;;6.10;99.90;;;;;;5069312;28;20193;-45
2022/01/09 09:04:13;;;;;;;8.73;3.80;;;6.10;99.90;;;;;;5061338;28;20200;-44
2022/01/09 09:06:39;;;;;;;9.80;4.57;;;6.10;99.90;;;;;;5067721;28;20428;-43
2022/01/09 09:09:05;;;;;;;11.07;3.87;;;6.10;99.90;;;;;;5068208;28;20903;-43
2022/01/09 09:11:31;;;;;;;10.63;4.80;;;6.10;99.90;;;;;;5057563;28;20487;-43
2022/01/09 09:13:56;;;;;;;9.67;3.73;;;6.20;99.90;;;;;;5067655;28;20948;-43
2022/01/09 09:16:22;;;;;;;9.67;3.17;;;6.40;99.90;;;;;;5067805;28;20207;-44
2022/01/09 09:18:49;;;;;;;13.40;3.70;;;6.30;99.90;;;;;;5068181;28;20191;-43
2022/01/09 09:21:16;;;;;;;8.60;3.47;;;6.20;99.90;;;;;;5069849;28;20249;-46
2022/01/09 09:23:43;;;;;;;11.90;3.33;;;6.30;99.90;;;;;;5069160;28;20438;-44
2022/01/09 09:26:09;;;;;;;6.57;3.43;;;6.20;99.90;;;;;;5065619;28;20487;-44
2022/01/09 09:28:36;;;;;;;10.60;3.60;;;6.40;99.90;;;;;;5070563;28;20419;-42
2022/01/09 09:31:03;;;;;;;6.40;3.30;;;6.40;99.90;;;;;;5070761;28;20430;-44
2022/01/09 09:33:29;;;;;;;10.53;3.47;;;6.20;99.90;;;;;;5067762;28;20495;-45
2022/01/09 09:35:58;;;;;;;10.07;3.73;;;6.40;99.90;;;;;;5072338;28;20573;-43
2022/01/09 09:38:24;;;;;;;9.93;5.63;;;6.10;99.90;;;;;;5072937;28;20423;-44
2022/01/09 09:40:50;;;;;;;9.30;4.00;;;6.30;99.90;;;;;;5066256;28;20775;-43
2022/01/09 09:43:17;;;;;;;7.57;4.10;;;6.20;99.90;;;;;;5063701;28;20276;-45
2022/01/09 09:45:43;;;;;;;4.90;3.20;;;6.30;99.90;;;;;;5069691;28;20226;-43
2022/01/09 09:48:09;;;;;;;7.70;4.60;;;6.40;99.90;;;;;;5066850;28;20438;-43
2022/01/09 09:50:35;;;;;;;13.50;5.20;;;6.20;99.90;;;;;;5069774;28;20758;-44
2022/01/09 09:53:02;;;;;;;9.27;5.17;;;6.20;99.90;;;;;;5071154;28;20507;-45
2022/01/09 09:55:28;;;;;;;12.80;5.20;;;6.20;99.90;;;;;;5068404;28;20462;-42
2022/01/09 09:57:54;;;;;;;10.43;4.77;;;6.20;99.90;;;;;;5064461;28;20443;-43
2022/01/09 10:00:21;;;;;;;15.90;5.07;;;6.40;99.90;;;;;;5072001;28;20489;-46
2022/01/09 10:02:57;;;;;;;11.67;4.87;;;6.40;99.90;;;;;;5070546;28;20518;-43
2022/01/09 10:05:32;;;;;;;12.30;4.57;;;6.30;99.90;;;;;;5068714;28;20471;-43
2022/01/09 10:08:09;;;;;;;11.60;4.20;;;6.40;99.90;;;;;;5071383;28;20451;-45
2022/01/09 10:10:37;;;;;;;9.27;4.70;;;6.50;99.90;;;;;;5070835;28;20466;-44
2022/01/09 10:13:06;;;;;;;9.50;4.00;;;6.40;99.90;;;;;;5066838;28;20987;-43
2022/01/09 10:15:49;;;;;;;10.73;4.43;;;6.60;99.90;;;;;;5070329;28;20945;-43
2022/01/09 10:18:48;;;;;;;11.77;4.03;;;6.80;99.90;;;;;;5068496;28;20423;-43
2022/01/09 10:21:15;;;;;;;8.03;4.30;;;7.10;99.90;;;;;;5067817;28;20415;-45
2022/01/09 10:24:05;;;;;;;9.90;3.70;;;7.10;99.90;;;;;;5071361;28;20419;-43
2022/01/09 10:26:37;;;;;;;7.33;3.50;;;7.20;99.90;;;;;;5060458;28;20993;-43
2022/01/09 10:29:04;;;;;;;8.60;4.20;;;7.20;99.90;;;;;;5070313;28;20426;-46
2022/01/09 10:31:30;;;;;;;9.73;5.13;;;7.10;99.90;;;;;;5069368;28;20554;-43
2022/01/09 10:34:08;;;;;;;11.27;6.10;;;7.00;99.90;;;;;;5070664;28;20561;-42
2022/01/09 10:36:40;;;;;;;8.97;5.23;;;7.00;99.90;;;;;;5070291;28;20423;-42
2022/01/09 10:39:13;;;;;;;12.83;6.20;;;7.20;99.90;;;;;;5069991;28;21338;-47
2022/01/09 10:41:56;;;;;;;12.27;6.40;;;7.20;99.90;;;;;;5064066;28;20531;-46
2022/01/09 10:44:31;;;;;;;10.83;5.57;;;7.20;99.90;;;;;;5066509;28;21387;-42
2022/01/09 10:47:03;;;;;;;14.73;5.80;;;7.10;99.90;;;;;;5070179;28;20434;-42
2022/01/09 10:49:55;;;;;;;10.60;6.47;;;7.00;99.90;;;;;;5069780;28;20432;-40
2022/01/09 10:52:31;;;;;;;8.50;5.63;;;7.00;99.90;;;;;;5067195;28;20494;-40
2022/01/09 10:55:03;;;;;;;10.10;5.60;;;7.00;99.90;;;;;;5070425;28;20423;-41
2022/01/09 10:57:36;;;;;;;7.83;6.27;;;6.60;99.90;;;;;;5060400;28;20459;-40
2022/01/09 11:00:14;;;;;;;7.30;5.20;;;6.60;99.90;;;;;;5069173;28;20817;-41
2022/01/09 11:02:40;;;;;;;8.87;6.73;;;6.60;99.90;;;;;;5057044;28;20431;-41
2022/01/09 11:05:06;;;;;;;10.43;6.60;;;6.70;99.90;;;;;;5070027;28;20556;-41
2022/01/09 11:07:33;;;;;;;13.90;6.73;;;6.30;99.90;;;;;;5069224;28;20501;-40
2022/01/09 11:10:00;;;;;;;8.80;6.30;;;6.50;99.90;;;;;;5067520;28;21114;-40
2022/01/09 11:12:33;;;;;;;12.70;6.07;;;6.50;99.90;;;;;;5064520;28;20982;-41
2022/01/09 11:15:01;;;;;;;9.10;5.43;;;6.20;99.90;;;;;;5067387;28;20996;-43
2022/01/09 11:17:28;;;;;;;10.23;6.27;;;6.20;99.90;;;;;;5069373;28;20434;-42
2022/01/09 11:19:54;;;;;;;11.33;6.40;;;6.30;99.90;;;;;;5067652;28;20917;-41
2022/01/09 11:22:21;;;;;;;10.90;5.90;;;6.10;99.90;;;;;;5070457;28;20434;-41
2022/01/09 11:25:16;;;;;;;9.00;6.30;;;6.50;99.90;;;;;;5070292;28;20193;-42
2022/01/09 11:28:23;;;;;;;12.83;5.97;;;6.20;99.90;;;;;;5062628;28;20427;-41
2022/01/09 11:31:01;;;;;;;9.53;5.17;;;6.40;99.90;;;;;;5068220;28;20419;-40
2022/01/09 11:34:01;;;;;;;8.20;5.30;;;6.20;99.90;;;;;;5069722;28;20953;-41
2022/01/09 11:36:38;;;;;;;13.47;6.50;;;6.30;99.90;;;;;;5069310;28;20400;-40
2022/01/09 11:39:13;;;;;;;16.30;6.77;;;6.60;99.90;;;;;;5069238;28;20807;-41
2022/01/09 11:41:41;;;;;;;8.70;6.40;;;6.40;99.90;;;;;;5064452;28;20468;-43
2022/01/09 11:44:09;;;;;;;11.13;6.40;;;6.20;99.90;;;;;;5065529;28;20411;-41
2022/01/09 11:46:59;;;;;;;10.70;6.23;;;6.40;99.90;;;;;;5069051;28;20418;-41
2022/01/09 11:49:36;;;;;;;9.53;6.20;;;6.50;99.90;;;;;;5069028;28;20415;-41
2022/01/09 11:52:02;;;;;;;8.70;7.07;;;6.40;99.90;;;;;;5066798;28;20458;-41
2022/01/09 11:54:45;;;;;;;14.43;9.40;;;6.30;99.90;;;;;;5070801;28;20454;-41
2022/01/09 11:57:14;;;;;;;12.27;7.00;;;6.50;99.90;;;;;;5064015;28;20974;-41
2022/01/09 11:59:45;;;;;;;14.97;6.80;;;6.40;99.90;;;;;;5050033;28;20412;-42
2022/01/09 12:02:16;;;;;;;9.90;6.33;;;6.30;99.90;;;;;;5068426;28;20423;-41
2022/01/09 12:04:45;;;;;;;11.83;7.00;;;6.20;99.90;;;;;;5074711;28;20420;-46
2022/01/09 12:07:32;;;;;;;15.30;6.70;;;6.40;99.90;;;;;;5084677;28;20793;-43
2022/01/09 12:09:58;;;;;;;10.30;7.60;;;6.40;99.90;;;;;;5088090;28;20513;-40
2022/01/09 12:12:37;;;;;;;14.13;7.00;;;6.20;99.90;;;;;;5073661;28;20479;-41
2022/01/09 12:15:08;;;;;;;9.90;6.70;;;6.30;99.90;;;;;;5062575;28;20754;-40
2022/01/09 12:17:34;;;;;;;11.10;6.27;;;6.30;99.90;;;;;;5066858;28;21314;-42
2022/01/09 12:20:08;;;;;;;11.60;6.60;;;6.50;99.90;;;;;;5077799;28;21008;-44
2022/01/09 12:22:43;;;;;;;12.00;6.50;;;6.50;99.90;;;;;;5048625;28;20407;-43
2022/01/09 12:25:22;;;;;;;11.77;6.73;;;6.30;99.90;;;;;;5068097;28;20411;-41
2022/01/09 12:28:11;;;;;;;7.73;5.40;;;6.30;99.90;;;;;;5058904;28;20430;-41
2022/01/09 12:30:41;;;;;;;9.17;5.23;;;6.30;99.90;;;;;;5065557;28;20427;-42
2022/01/09 12:33:14;;;;;;;10.97;5.50;;;6.40;99.90;;;;;;5049723;28;20513;-41
2022/01/09 12:36:00;;;;;;;11.50;5.23;;;6.40;99.90;;;;;;5067673;28;20423;-41
2022/01/09 12:38:29;;;;;;;9.33;5.20;;;6.30;99.90;;;;;;5054706;28;20411;-40
2022/01/09 12:41:09;;;;;;;6.63;4.63;;;6.50;99.90;;;;;;5067770;28;20786;-42
2022/01/09 12:43:38;;;;;;;8.60;5.20;;;6.50;99.90;;;;;;5055039;28;20431;-41
2022/01/09 12:46:09;;;;;;;9.60;5.00;;;6.20;99.90;;;;;;5066527;28;20965;-42
2022/01/09 12:48:35;;;;;;;10.90;5.70;;;6.30;99.90;;;;;;5054382;28;20463;-42
2022/01/09 12:51:12;;;;;;;7.93;5.23;;;6.50;99.90;;;;;;5065724;28;20452;-41
2022/01/09 12:53:42;;;;;;;8.20;5.83;;;6.30;99.90;;;;;;5066562;28;20250;-41
2022/01/09 12:56:13;;;;;;;9.30;5.30;;;6.30;99.90;;;;;;5069488;28;20435;-41
2022/01/09 12:58:44;;;;;;;10.97;5.93;;;6.40;99.90;;;;;;5041895;28;20853;-40